createdAt,value
2018-09-25T00:00:29.311Z,7.10
2018-09-25T00:03:03.164Z,7.00
2018-09-25T00:05:36.982Z,7.00
2018-09-25T00:08:10.982Z,7.00
2018-09-25T00:10:44.951Z,7.10
2018-09-25T00:13:18.962Z,6.80
2018-09-25T00:15:53.040Z,6.90
2018-09-25T00:18:27.127Z,6.60
2018-09-25T00:21:01.122Z,6.40
2018-09-25T00:23:35.179Z,6.20
2018-09-25T00:26:09.012Z,6.20
2018-09-25T00:28:42.946Z,6.40
2018-09-25T00:31:16.935Z,6.40
2018-09-25T00:33:50.711Z,6.40
2018-09-25T00:36:24.527Z,6.40
2018-09-25T00:38:58.521Z,6.20
2018-09-25T00:41:32.455Z,6.20
2018-09-25T00:44:06.331Z,6.40
2018-09-25T00:46:41.367Z,6.50
2018-09-25T00:49:15.214Z,6.40
2018-09-25T00:51:49.224Z,6.40
2018-09-25T00:54:23.217Z,6.30
2018-09-25T00:56:57.287Z,6.10
2018-09-25T00:59:31.278Z,6.10
2018-09-25T01:02:05.366Z,5.90
2018-09-25T01:04:39.331Z,5.20
2018-09-25T01:07:13.256Z,4.90
2018-09-25T01:09:47.199Z,5.30
2018-09-25T01:12:22.106Z,4.90
2018-09-25T01:14:55.876Z,5.00
2018-09-25T01:17:29.762Z,5.10
2018-09-25T01:20:03.721Z,5.40
2018-09-25T01:22:37.696Z,5.50
2018-09-25T01:25:11.549Z,5.50
2018-09-25T01:27:45.509Z,5.50
2018-09-25T01:30:19.571Z,5.60
2018-09-25T01:32:53.582Z,5.60
2018-09-25T01:35:27.420Z,5.50
2018-09-25T01:38:01.279Z,5.40
2018-09-25T01:40:35.172Z,5.40
2018-09-25T01:43:09.130Z,5.50
2018-09-25T01:45:43.056Z,5.40
2018-09-25T01:48:16.924Z,5.30
2018-09-25T01:50:50.747Z,5.30
2018-09-25T01:53:24.483Z,5.20
2018-09-25T01:55:58.349Z,5.20
2018-09-25T01:58:32.254Z,5.30
2018-09-25T02:01:06.087Z,5.10
2018-09-25T02:03:40.070Z,5.20
2018-09-25T02:06:13.920Z,5.00
2018-09-25T02:08:47.825Z,5.00
2018-09-25T02:11:21.681Z,4.70
2018-09-25T02:13:55.682Z,4.70
2018-09-25T02:16:29.650Z,5.00
2018-09-25T02:19:03.482Z,5.00
2018-09-25T02:21:37.367Z,4.90
2018-09-25T02:24:11.354Z,4.70
2018-09-25T02:26:45.223Z,4.30
2018-09-25T02:29:19.085Z,4.30
2018-09-25T02:31:52.971Z,4.40
2018-09-25T02:34:26.884Z,4.50
2018-09-25T02:37:00.744Z,4.50
2018-09-25T02:39:34.566Z,4.60
2018-09-25T02:42:08.541Z,4.20
2018-09-25T02:44:42.410Z,4.20
2018-09-25T02:47:16.270Z,3.90
2018-09-25T02:49:50.164Z,4.10
2018-09-25T02:52:24.139Z,4.40
2018-09-25T02:54:58.070Z,4.40
2018-09-25T02:57:32.098Z,4.30
2018-09-25T03:00:05.985Z,4.40
2018-09-25T03:02:40.001Z,4.30
2018-09-25T03:05:13.965Z,4.30
2018-09-25T03:07:47.802Z,4.10
2018-09-25T03:10:21.803Z,4.10
2018-09-25T03:12:55.818Z,4.00
2018-09-25T03:15:29.618Z,4.00
2018-09-25T03:18:03.656Z,3.90
2018-09-25T03:20:37.615Z,3.70
2018-09-25T03:23:11.487Z,3.50
2018-09-25T03:25:45.358Z,3.20
2018-09-25T03:28:19.367Z,3.40
2018-09-25T03:30:53.324Z,3.60
2018-09-25T03:33:27.522Z,3.60
2018-09-25T03:36:01.475Z,3.70
2018-09-25T03:38:35.436Z,3.60
2018-09-25T03:41:09.359Z,3.60
2018-09-25T03:43:43.096Z,3.60
2018-09-25T03:46:16.950Z,3.60
2018-09-25T03:48:50.954Z,3.60
2018-09-25T03:51:24.833Z,3.60
2018-09-25T03:53:58.898Z,3.70
2018-09-25T03:56:32.750Z,3.60
2018-09-25T03:59:06.619Z,3.50
2018-09-25T04:01:40.360Z,3.60
2018-09-25T04:04:14.374Z,3.70
2018-09-25T04:06:48.217Z,3.50
2018-09-25T04:09:28.990Z,3.60
2018-09-25T04:12:02.978Z,3.70
2018-09-25T04:14:36.847Z,3.70
2018-09-25T04:17:10.684Z,3.70
2018-09-25T04:19:44.629Z,3.60
2018-09-25T04:22:18.428Z,3.50
2018-09-25T04:24:52.233Z,3.70
2018-09-25T04:27:26.075Z,3.70
2018-09-25T04:30:00.100Z,3.90
2018-09-25T04:32:34.163Z,4.00
2018-09-25T04:35:08.265Z,4.00
2018-09-25T04:37:42.239Z,3.90
2018-09-25T04:40:16.147Z,4.10
2018-09-25T04:42:49.917Z,4.10
2018-09-25T04:45:23.642Z,4.10
2018-09-25T04:47:57.601Z,4.20
2018-09-25T04:50:31.494Z,4.30
2018-09-25T04:53:05.413Z,4.30
2018-09-25T04:55:39.327Z,4.20
2018-09-25T04:58:13.382Z,4.20
2018-09-25T05:00:47.155Z,4.20
2018-09-25T05:03:21.125Z,4.10
2018-09-25T05:05:55.128Z,4.10
2018-09-25T05:08:29.204Z,4.30
2018-09-25T05:11:03.093Z,4.20
2018-09-25T05:13:37.132Z,4.40
2018-09-25T05:16:11.032Z,4.50
2018-09-25T05:18:45.012Z,4.40
2018-09-25T05:21:18.923Z,4.40
2018-09-25T05:23:52.902Z,4.50
2018-09-25T05:26:26.721Z,4.40
2018-09-25T05:29:00.687Z,4.30
2018-09-25T05:31:34.611Z,4.40
2018-09-25T05:34:08.591Z,4.50
2018-09-25T05:36:42.478Z,4.50
2018-09-25T05:39:16.511Z,4.50
2018-09-25T05:41:50.331Z,4.40
2018-09-25T05:44:24.343Z,4.50
2018-09-25T05:46:58.296Z,4.40
2018-09-25T05:49:32.210Z,4.30
2018-09-25T05:52:06.131Z,4.30
2018-09-25T05:54:40.091Z,4.30
2018-09-25T05:57:14.011Z,4.30
2018-09-25T05:59:47.852Z,4.30
2018-09-25T06:02:21.792Z,4.20
2018-09-25T06:04:56.820Z,4.30
2018-09-25T06:07:30.804Z,4.50
2018-09-25T06:10:04.676Z,4.40
2018-09-25T06:12:38.635Z,4.50
2018-09-25T06:15:12.710Z,4.30
2018-09-25T06:17:46.671Z,3.70
2018-09-25T06:20:20.654Z,3.90
2018-09-25T06:22:54.549Z,4.10
2018-09-25T06:25:28.586Z,4.20
2018-09-25T06:28:02.602Z,4.30
2018-09-25T06:30:36.462Z,4.40
2018-09-25T06:33:10.420Z,4.60
2018-09-25T06:35:44.410Z,4.50
2018-09-25T06:38:18.249Z,4.70
2018-09-25T06:40:52.217Z,4.60
2018-09-25T06:43:26.232Z,4.10
2018-09-25T06:46:00.154Z,4.40
2018-09-25T06:48:34.086Z,4.60
2018-09-25T06:51:08.044Z,4.50
2018-09-25T06:53:41.938Z,4.80
2018-09-25T06:56:15.871Z,4.60
2018-09-25T06:58:49.766Z,4.80
2018-09-25T07:01:23.792Z,5.00
2018-09-25T07:03:57.728Z,4.90
2018-09-25T07:06:31.716Z,5.00
2018-09-25T07:09:05.595Z,4.60
2018-09-25T07:11:39.534Z,4.80
2018-09-25T07:14:13.502Z,4.90
2018-09-25T07:16:47.604Z,5.20
2018-09-25T07:19:21.491Z,5.30
2018-09-25T07:21:55.284Z,5.40
2018-09-25T07:24:29.432Z,5.70
2018-09-25T07:27:03.395Z,5.90
2018-09-25T07:29:37.303Z,6.20
2018-09-25T07:32:11.202Z,6.40
2018-09-25T07:34:45.064Z,6.50
2018-09-25T07:37:19.036Z,6.40
2018-09-25T07:39:53.103Z,6.50
2018-09-25T07:42:27.188Z,6.60
2018-09-25T07:45:01.074Z,6.80
2018-09-25T07:47:34.978Z,7.10
2018-09-25T07:50:08.962Z,7.10
2018-09-25T07:52:42.895Z,7.30
2018-09-25T07:55:16.699Z,7.70
2018-09-25T07:57:50.623Z,7.90
2018-09-25T08:00:24.607Z,8.20
2018-09-25T08:02:58.646Z,8.60
2018-09-25T08:05:32.662Z,8.50
2018-09-25T08:08:06.503Z,8.90
2018-09-25T08:10:40.274Z,9.40
2018-09-25T08:13:14.067Z,9.70
2018-09-25T08:15:47.998Z,10.10
2018-09-25T08:18:21.865Z,10.40
2018-09-25T08:20:55.641Z,10.60
2018-09-25T08:23:29.511Z,10.80
2018-09-25T08:26:03.507Z,11.00
2018-09-25T08:28:37.561Z,11.40
2018-09-25T08:31:11.839Z,11.70
2018-09-25T08:33:45.710Z,11.70
2018-09-25T08:36:19.851Z,10.70
2018-09-25T08:38:53.862Z,11.40
2018-09-25T08:41:27.567Z,11.90
2018-09-25T08:44:01.502Z,12.50
2018-09-25T08:46:35.395Z,12.60
2018-09-25T08:49:09.335Z,12.70
2018-09-25T08:51:43.385Z,12.50
2018-09-25T08:54:17.224Z,12.50
2018-09-25T08:56:51.158Z,12.70
2018-09-25T08:59:25.000Z,12.50
2018-09-25T09:01:58.841Z,12.90
2018-09-25T09:04:32.706Z,13.30
2018-09-25T09:07:06.585Z,13.00
2018-09-25T09:09:40.558Z,13.20
2018-09-25T09:12:14.635Z,13.40
2018-09-25T09:14:48.590Z,13.70
2018-09-25T09:17:22.421Z,13.10
2018-09-25T09:19:56.385Z,13.90
2018-09-25T09:22:30.151Z,13.40
2018-09-25T09:25:04.160Z,13.30
2018-09-25T09:27:38.207Z,13.60
2018-09-25T09:30:12.307Z,12.40
2018-09-25T09:32:46.091Z,13.50
2018-09-25T09:35:19.855Z,14.10
2018-09-25T09:37:53.757Z,14.50
2018-09-25T09:40:27.527Z,14.00
2018-09-25T09:43:01.385Z,14.00
2018-09-25T09:45:35.248Z,13.60
2018-09-25T09:48:09.294Z,14.70
2018-09-25T09:50:43.226Z,15.30
2018-09-25T09:53:17.225Z,15.50
2018-09-25T09:55:51.173Z,15.80
2018-09-25T09:58:25.096Z,15.80
2018-09-25T10:00:59.084Z,15.20
2018-09-25T10:03:33.005Z,14.60
2018-09-25T10:06:06.832Z,14.10
2018-09-25T10:08:40.771Z,13.40
2018-09-25T10:11:14.727Z,13.20
2018-09-25T10:13:48.572Z,12.90
2018-09-25T10:16:22.659Z,13.40
2018-09-25T10:18:56.783Z,13.30
2018-09-25T10:21:30.758Z,13.40
2018-09-25T10:24:04.650Z,13.20
2018-09-25T10:26:38.497Z,13.20
2018-09-25T10:29:12.374Z,13.20
2018-09-25T10:31:46.345Z,13.10
2018-09-25T10:34:20.420Z,13.10
2018-09-25T10:36:55.349Z,13.20
2018-09-25T10:39:29.146Z,13.60
2018-09-25T10:42:03.307Z,13.90
2018-09-25T10:44:37.195Z,14.40
2018-09-25T10:47:11.058Z,14.10
2018-09-25T10:49:44.993Z,13.40
2018-09-25T10:52:18.940Z,13.50
2018-09-25T10:54:52.861Z,14.10
2018-09-25T10:57:26.840Z,14.30
2018-09-25T11:00:00.778Z,14.40
2018-09-25T11:02:34.657Z,14.40
2018-09-25T11:05:08.500Z,14.70
2018-09-25T11:07:42.366Z,14.30
2018-09-25T11:10:16.380Z,13.60
2018-09-25T11:12:50.246Z,14.40
2018-09-25T11:15:24.079Z,14.90
2018-09-25T11:17:57.887Z,14.90
2018-09-25T11:20:31.771Z,15.00
2018-09-25T11:23:05.807Z,14.80
2018-09-25T11:25:39.690Z,14.40
2018-09-25T11:28:13.567Z,14.70
2018-09-25T11:30:47.282Z,15.10
2018-09-25T11:33:21.143Z,14.10
2018-09-25T11:35:55.007Z,14.00
2018-09-25T11:38:28.788Z,14.40
2018-09-25T11:41:02.763Z,14.50
2018-09-25T11:43:36.653Z,14.40
2018-09-25T11:46:10.550Z,14.80
2018-09-25T11:48:44.515Z,14.80
2018-09-25T11:51:18.392Z,15.00
2018-09-25T11:53:52.271Z,14.50
2018-09-25T11:56:26.230Z,14.00
2018-09-25T11:59:00.202Z,14.60
2018-09-25T12:01:34.003Z,15.50
2018-09-25T12:04:08.043Z,15.50
2018-09-25T12:06:41.920Z,16.40
2018-09-25T12:09:15.880Z,15.60
2018-09-25T12:11:49.761Z,15.50
2018-09-25T12:14:23.797Z,15.50
2018-09-25T12:16:57.870Z,15.40
2018-09-25T12:19:31.947Z,14.90
2018-09-25T12:22:05.707Z,15.50
2018-09-25T12:24:39.665Z,13.90
2018-09-25T12:27:13.498Z,14.10
2018-09-25T12:29:47.387Z,15.00
2018-09-25T12:32:21.314Z,14.40
2018-09-25T12:34:55.174Z,14.80
2018-09-25T12:37:28.961Z,14.50
2018-09-25T12:40:02.922Z,14.90
2018-09-25T12:42:36.895Z,14.80
2018-09-25T12:45:10.886Z,14.90
2018-09-25T12:47:44.840Z,15.70
2018-09-25T12:50:18.802Z,15.80
2018-09-25T12:52:52.720Z,15.10
2018-09-25T12:55:26.698Z,14.70
2018-09-25T12:58:00.704Z,15.10
2018-09-25T13:00:34.838Z,14.60
2018-09-25T13:03:08.794Z,14.40
2018-09-25T13:05:42.859Z,14.20
2018-09-25T13:08:16.835Z,14.40
2018-09-25T13:10:50.874Z,14.20
2018-09-25T13:13:24.763Z,14.30
2018-09-25T13:15:58.822Z,14.50
2018-09-25T13:18:32.905Z,15.00
2018-09-25T13:21:06.759Z,15.40
2018-09-25T13:23:40.761Z,15.50
2018-09-25T13:26:14.759Z,15.90
2018-09-25T13:28:48.699Z,15.60
2018-09-25T13:31:22.563Z,15.20
2018-09-25T13:33:56.618Z,15.50
2018-09-25T13:36:30.694Z,15.50
2018-09-25T13:39:04.680Z,15.60
2018-09-25T13:41:38.499Z,15.30
2018-09-25T13:44:13.175Z,14.90
2018-09-25T13:46:47.225Z,14.80
2018-09-25T13:49:21.240Z,15.20
2018-09-25T13:51:55.152Z,15.40
2018-09-25T13:54:29.171Z,15.70
2018-09-25T13:57:03.350Z,15.50
2018-09-25T13:59:37.392Z,15.30
2018-09-25T14:02:11.406Z,15.50
2018-09-25T14:04:45.323Z,14.80
2018-09-25T14:07:19.428Z,15.20
2018-09-25T14:09:54.394Z,14.90
2018-09-25T14:12:28.407Z,15.10
2018-09-25T14:15:02.171Z,14.60
2018-09-25T14:17:36.096Z,14.30
2018-09-25T14:20:09.986Z,14.30
2018-09-25T14:22:43.959Z,14.20
2018-09-25T14:25:18.026Z,14.20
2018-09-25T14:27:52.024Z,14.40
2018-09-25T14:30:26.057Z,14.70
2018-09-25T14:33:00.041Z,14.20
2018-09-25T14:35:34.054Z,14.00
2018-09-25T14:38:07.887Z,14.00
2018-09-25T14:40:41.800Z,14.20
2018-09-25T14:43:15.725Z,14.40
2018-09-25T14:45:49.804Z,14.70
2018-09-25T14:48:23.804Z,14.70
2018-09-25T14:50:57.839Z,15.30
2018-09-25T14:53:31.610Z,15.00
2018-09-25T14:56:05.535Z,14.70
2018-09-25T14:58:39.479Z,15.00
2018-09-25T15:01:13.452Z,14.80
2018-09-25T15:03:47.337Z,14.90
2018-09-25T15:06:21.204Z,14.50
2018-09-25T15:08:55.152Z,14.50
2018-09-25T15:11:29.000Z,14.20
2018-09-25T15:14:03.044Z,14.10
2018-09-25T15:16:36.987Z,14.40
2018-09-25T15:19:11.176Z,14.60
2018-09-25T15:21:45.349Z,14.40
2018-09-25T15:24:19.088Z,14.10
2018-09-25T15:26:53.039Z,14.10
2018-09-25T15:29:26.947Z,14.20
2018-09-25T15:32:00.852Z,14.50
2018-09-25T15:34:34.941Z,14.40
2018-09-25T15:37:08.896Z,14.50
2018-09-25T15:39:43.008Z,14.40
2018-09-25T15:42:16.793Z,14.00
2018-09-25T15:44:50.826Z,14.10
2018-09-25T15:47:24.834Z,14.00
2018-09-25T15:49:58.788Z,13.80
2018-09-25T15:52:32.820Z,14.00
2018-09-25T15:55:06.829Z,13.80
2018-09-25T15:57:40.871Z,13.60
2018-09-25T16:00:14.804Z,13.50
2018-09-25T16:02:48.825Z,13.30
2018-09-25T16:05:22.830Z,13.40
2018-09-25T16:07:56.771Z,13.50
2018-09-25T16:10:30.568Z,13.30
2018-09-25T16:13:04.452Z,13.30
2018-09-25T16:15:38.447Z,13.30
2018-09-25T16:18:12.525Z,13.30
2018-09-25T16:20:46.426Z,13.20
2018-09-25T16:23:20.280Z,13.10
2018-09-25T16:25:54.114Z,13.10
2018-09-25T16:28:27.904Z,13.10
2018-09-25T16:31:01.735Z,13.10
2018-09-25T16:33:35.710Z,13.00
2018-09-25T16:36:09.735Z,13.30
2018-09-25T16:38:43.734Z,13.30
2018-09-25T16:41:17.547Z,13.00
2018-09-25T16:43:51.267Z,13.10
2018-09-25T16:46:25.130Z,13.10
2018-09-25T16:48:58.993Z,13.30
2018-09-25T16:51:32.770Z,13.40
2018-09-25T16:54:06.765Z,13.40
2018-09-25T16:56:40.668Z,13.30
2018-09-25T16:59:14.728Z,13.30
2018-09-25T17:01:48.582Z,13.30
2018-09-25T17:04:22.389Z,13.10
2018-09-25T17:06:56.190Z,13.00
2018-09-25T17:09:30.092Z,12.90
2018-09-25T17:12:03.946Z,13.00
2018-09-25T17:14:37.778Z,13.00
2018-09-25T17:17:11.797Z,12.90
2018-09-25T17:19:45.834Z,12.70
2018-09-25T17:22:19.773Z,12.30
2018-09-25T17:24:53.724Z,12.20
2018-09-25T17:27:27.587Z,12.40
2018-09-25T17:30:01.735Z,12.30
2018-09-25T17:32:35.831Z,12.00
2018-09-25T17:35:09.836Z,12.00
2018-09-25T17:37:44.059Z,11.90
2018-09-25T17:40:18.187Z,11.70
2018-09-25T17:42:52.051Z,11.50
2018-09-25T17:45:26.038Z,11.60
2018-09-25T17:48:00.075Z,11.60
2018-09-25T17:50:33.925Z,11.40
2018-09-25T17:53:07.934Z,10.90
2018-09-25T17:55:41.863Z,10.40
2018-09-25T17:58:17.023Z,10.10
2018-09-25T18:00:51.039Z,10.30
2018-09-25T18:03:24.927Z,10.30
2018-09-25T18:05:58.739Z,10.30
2018-09-25T18:08:32.792Z,10.50
2018-09-25T18:11:06.670Z,10.50
2018-09-25T18:13:40.727Z,10.30
2018-09-25T18:16:14.651Z,9.90
2018-09-25T18:18:49.520Z,9.90
2018-09-25T18:21:23.460Z,9.70
2018-09-25T18:23:57.280Z,9.70
2018-09-25T18:26:31.210Z,9.30
2018-09-25T18:29:05.254Z,9.40
2018-09-25T18:31:39.392Z,9.50
2018-09-25T18:34:13.310Z,9.50
2018-09-25T18:36:47.235Z,9.20
2018-09-25T18:39:21.100Z,9.00
2018-09-25T18:41:54.959Z,9.00
2018-09-25T18:44:28.911Z,9.00
2018-09-25T18:47:02.852Z,8.70
2018-09-25T18:49:36.816Z,8.70
2018-09-25T18:52:10.800Z,8.80
2018-09-25T18:54:44.628Z,8.50
2018-09-25T18:57:18.510Z,8.10
2018-09-25T18:59:52.364Z,7.70
2018-09-25T19:02:26.558Z,8.00
2018-09-25T19:05:00.676Z,8.10
2018-09-25T19:07:34.635Z,8.10
2018-09-25T19:10:08.465Z,8.00
2018-09-25T19:12:42.269Z,8.00
2018-09-25T19:15:16.345Z,8.10
2018-09-25T19:17:50.396Z,7.90
2018-09-25T19:20:24.246Z,7.80
2018-09-25T19:22:58.112Z,7.60
2018-09-25T19:25:32.177Z,7.60
2018-09-25T19:28:06.150Z,7.80
2018-09-25T19:30:40.082Z,7.70
2018-09-25T19:33:14.103Z,7.70
2018-09-25T19:35:48.170Z,7.70
2018-09-25T19:38:22.013Z,7.50
2018-09-25T19:40:55.950Z,7.20
2018-09-25T19:43:30.051Z,7.20
2018-09-25T19:46:04.002Z,7.30
2018-09-25T19:48:38.018Z,7.50
2018-09-25T19:51:11.819Z,7.60
2018-09-25T19:53:45.723Z,7.60
2018-09-25T19:56:19.568Z,7.40
2018-09-25T19:58:53.538Z,7.40
2018-09-25T20:01:27.446Z,7.30
2018-09-25T20:04:01.347Z,7.40
2018-09-25T20:06:35.327Z,7.20
2018-09-25T20:09:09.531Z,7.00
2018-09-25T20:11:43.294Z,6.70
2018-09-25T20:14:17.276Z,6.50
2018-09-25T20:16:51.168Z,6.50
2018-09-25T20:19:25.059Z,6.70
2018-09-25T20:21:59.092Z,6.90
2018-09-25T20:24:33.002Z,7.00
2018-09-25T20:27:06.808Z,7.00
2018-09-25T20:29:40.628Z,6.80
2018-09-25T20:32:14.570Z,6.50
2018-09-25T20:34:48.424Z,6.50
2018-09-25T20:37:22.127Z,6.10
2018-09-25T20:39:57.088Z,6.20
2018-09-25T20:42:30.972Z,6.20
2018-09-25T20:45:04.880Z,6.20
2018-09-25T20:47:38.903Z,6.10
2018-09-25T20:50:12.947Z,5.60
2018-09-25T20:52:46.895Z,5.80
2018-09-25T20:55:20.767Z,6.10
2018-09-25T20:57:54.594Z,6.10
2018-09-25T21:00:28.559Z,5.90
2018-09-25T21:03:02.534Z,6.00
2018-09-25T21:05:36.284Z,6.00
2018-09-25T21:08:10.139Z,5.90
2018-09-25T21:10:44.102Z,5.90
2018-09-25T21:13:18.077Z,5.90
2018-09-25T21:15:52.115Z,5.70
2018-09-25T21:18:26.102Z,5.70
2018-09-25T21:21:00.103Z,5.50
2018-09-25T21:23:34.094Z,5.50
2018-09-25T21:26:08.019Z,5.60
2018-09-25T21:28:42.007Z,5.60
2018-09-25T21:31:15.823Z,5.70
2018-09-25T21:33:49.664Z,5.60
2018-09-25T21:36:23.674Z,5.40
2018-09-25T21:38:57.657Z,5.50
2018-09-25T21:41:31.626Z,5.50
2018-09-25T21:44:05.590Z,5.40
2018-09-25T21:46:39.439Z,5.30
2018-09-25T21:49:13.450Z,5.20
2018-09-25T21:51:47.538Z,5.10
2018-09-25T21:54:21.352Z,4.70
2018-09-25T21:56:55.300Z,4.90
2018-09-25T21:59:29.245Z,5.10
2018-09-25T22:02:03.168Z,5.10
2018-09-25T22:04:37.276Z,5.00
2018-09-25T22:07:11.226Z,5.10
2018-09-25T22:09:45.064Z,5.10
2018-09-25T22:12:19.040Z,5.00
2018-09-25T22:14:52.904Z,4.90
2018-09-25T22:17:26.775Z,4.90
2018-09-25T22:20:00.658Z,5.00
2018-09-25T22:22:34.578Z,4.80
2018-09-25T22:25:08.563Z,4.70
2018-09-25T22:27:42.303Z,4.80
2018-09-25T22:30:16.221Z,4.80
2018-09-25T22:32:50.118Z,4.50
2018-09-25T22:35:23.952Z,4.40
2018-09-25T22:37:57.976Z,4.50
2018-09-25T22:40:32.019Z,4.50
2018-09-25T22:43:05.906Z,4.30
2018-09-25T22:45:39.703Z,4.40
2018-09-25T22:48:13.501Z,4.60
2018-09-25T22:50:47.435Z,4.40
2018-09-25T22:53:21.387Z,4.30
2018-09-25T22:55:55.423Z,4.40
2018-09-25T22:58:29.426Z,4.30
2018-09-25T23:01:03.280Z,4.40
2018-09-25T23:03:37.268Z,4.40
2018-09-25T23:06:11.177Z,4.30
2018-09-25T23:08:45.182Z,4.40
2018-09-25T23:11:19.139Z,4.60
2018-09-25T23:13:53.133Z,4.50
2018-09-25T23:16:27.047Z,4.60
2018-09-25T23:19:00.919Z,4.40
2018-09-25T23:21:34.806Z,4.30
2018-09-25T23:24:08.660Z,4.10
2018-09-25T23:26:42.457Z,3.80
2018-09-25T23:29:16.389Z,3.80
2018-09-25T23:31:50.355Z,3.50
2018-09-25T23:34:24.266Z,3.60
2018-09-25T23:36:58.122Z,3.60
2018-09-25T23:39:32.108Z,3.50
2018-09-25T23:42:12.093Z,3.90
2018-09-25T23:44:46.035Z,4.00
2018-09-25T23:47:19.576Z,4.00
2018-09-25T23:49:57.404Z,4.00
2018-09-25T23:52:44.733Z,3.90
2018-09-25T23:55:18.945Z,3.80
2018-09-25T23:57:58.499Z,3.50
